Imperial, CA (92251)

4:20 PM PST on February 05, 2016 (GMT -0800)
Imperial County | | Change Station
CLOSE
Current Station
Airport
Location: Imperial,
Elevation: -56 ft
Nearby Weather Stations

Elev -56 ft 32.83 °N, 115.58 °W | Updated 27 minutes ago

Clear
Clear
72 °F
Feels Like 72 °F
N
6
Wind Variable Wind from WNW

Today
High -- | Low -- °F
--% Chance of Precip.
Yesterday
High -- | Low -- °F
Precip. -- in
Pressure 30.30 in
Visibility 10.0 miles
Clouds Clear
Dew Point 25 °F
Humidity 17%
Rainfall 0.00 in
Snow Depth Not available.
6:34 AM 5:18 PM
Waning Crescent, 8% visible
METAR KIPL 052353Z AUTO 30005KT 10SM CLR 22/M04 A3030 RMK AO2 SLP259 T02221039 10228 20172 56012
Pressure 30.30 in
Visibility 10.0 miles
Clouds Clear
Dew Point 25 °F
Humidity 17%
Rainfall 0.00 in
Snow Depth Not available.
6:34 AM 5:18 PM
Waning Crescent, 8% visible
METAR KIPL 052353Z AUTO 30005KT 10SM CLR 22/M04 A3030 RMK AO2 SLP259 T02221039 10228 20172 56012

10-Day Weather Forecast

Almanac

Astronomy

Feb. 05, 2016 Rise Set
Actual Time
Civil Twilight
Nautical Twilight
Astronomical Twilight
Moon
Length of Visible Light
Length of Day
Tomorrow will be .
, % of the Moon is Illuminated

Today's Extremes

State Highs State Lows

Community

WunderPhotos

Upload Photos

1,890,893 photos uploaded!

WunderBlog® & News

Nearby

Air Quality

  Air Quality AQ Index Pollutant
Not available.

Snow Depth

Station Depth Elevation

Earthquake Activity

City Distance Mag. Time & Date
Minimum magnitude displayed is 2.5.

Coastal Water Temperatures

Place Temperature

Stations

Nearby Weather Stations

Station Location Temp. Windchill Dew Point Humidity Wind Precip. Elev Updated Type
                   

Watches & Warnings

There are currently no watches in effect.